createdAt,value
2023-03-23T15:59:14.422Z,5.03
2023-03-23T16:01:43.430Z,4.80
2023-03-23T16:04:15.631Z,4.40
2023-03-23T16:06:44.538Z,4.68
2023-03-23T16:09:16.892Z,4.55
2023-03-23T16:11:43.996Z,3.85
2023-03-23T16:14:11.715Z,4.00
2023-03-23T16:16:50.804Z,3.78
2023-03-23T16:19:20.541Z,3.70
2023-03-23T16:21:47.653Z,4.82
2023-03-23T16:24:14.893Z,4.22
2023-03-23T16:26:41.848Z,4.32
2023-03-23T16:29:28.280Z,4.43
2023-03-23T16:32:01.632Z,4.55
2023-03-23T16:34:33.117Z,4.60
2023-03-23T16:37:00.344Z,4.35
2023-03-23T16:39:27.847Z,4.45
2023-03-23T16:41:54.967Z,4.57
2023-03-23T16:44:22.324Z,4.40
2023-03-23T16:46:49.263Z,5.10
2023-03-23T16:49:16.772Z,4.22
2023-03-23T16:51:43.705Z,4.50
2023-03-23T16:54:11.016Z,3.53
2023-03-23T16:56:38.579Z,3.90
2023-03-23T16:59:06.096Z,3.60
2023-03-23T17:01:33.147Z,3.80
2023-03-23T17:04:00.503Z,3.80
2023-03-23T17:06:27.640Z,3.83
2023-03-23T17:08:55.076Z,3.92
2023-03-23T17:11:22.111Z,3.88
2023-03-23T17:13:49.801Z,3.83
2023-03-23T17:16:16.736Z,3.95
2023-03-23T17:18:44.082Z,4.20
2023-03-23T17:21:11.206Z,4.55
2023-03-23T17:23:38.377Z,4.25
2023-03-23T17:26:05.948Z,4.45
2023-03-23T17:28:33.193Z,4.50
2023-03-23T17:31:00.492Z,5.05
2023-03-23T17:33:27.912Z,4.40
2023-03-23T17:35:55.167Z,4.50
2023-03-23T17:38:22.530Z,4.93
2023-03-23T17:40:57.188Z,5.57
2023-03-23T17:43:24.348Z,4.88
2023-03-23T17:45:51.298Z,5.18
2023-03-23T17:48:18.578Z,4.85
2023-03-23T17:50:49.547Z,4.97
2023-03-23T17:53:18.546Z,4.80
2023-03-23T17:55:46.414Z,5.25
2023-03-23T17:58:13.695Z,4.63
2023-03-23T18:00:40.645Z,4.88
2023-03-23T18:03:07.857Z,5.25
2023-03-23T18:05:35.652Z,5.32
2023-03-23T18:08:02.909Z,5.80
2023-03-23T18:10:29.966Z,5.60
2023-03-23T18:12:57.287Z,5.95
2023-03-23T18:15:28.263Z,5.68
2023-03-23T18:17:57.374Z,6.05
2023-03-23T18:20:24.421Z,5.45
2023-03-23T18:22:51.803Z,5.75
2023-03-23T18:25:19.311Z,5.32
2023-03-23T18:27:47.023Z,5.45
2023-03-23T18:30:14.185Z,5.32
2023-03-23T18:32:42.654Z,6.20
2023-03-23T18:35:11.255Z,5.60
2023-03-23T18:37:39.665Z,5.25
2023-03-23T18:40:10.914Z,5.45
2023-03-23T18:45:07.621Z,6.57
2023-03-23T18:47:37.450Z,6.22
2023-03-23T18:50:09.377Z,6.65
2023-03-23T18:52:37.032Z,6.72
2023-03-23T18:55:04.433Z,6.15
2023-03-23T18:57:31.966Z,6.15
2023-03-23T18:59:59.010Z,5.78
2023-03-23T19:02:26.685Z,5.65
2023-03-23T19:04:53.930Z,5.40
2023-03-23T19:07:21.585Z,4.78
2023-03-23T19:09:48.557Z,4.20
2023-03-23T19:12:16.086Z,4.97
2023-03-23T19:14:43.926Z,3.70
2023-03-23T19:17:11.317Z,4.00
2023-03-23T19:19:38.828Z,3.70
2023-03-23T19:22:08.784Z,4.28
2023-03-23T19:24:36.497Z,3.15
2023-03-23T19:27:03.952Z,3.63
2023-03-23T19:29:31.323Z,3.40
2023-03-23T19:31:58.774Z,3.40
2023-03-23T19:34:28.151Z,3.17
2023-03-23T19:37:04.775Z,3.42
2023-03-23T19:39:34.166Z,3.47
2023-03-23T19:42:01.817Z,3.88
2023-03-23T19:44:29.150Z,3.35
2023-03-23T19:46:56.758Z,2.80
2023-03-23T19:49:25.098Z,2.90
2023-03-23T19:52:06.370Z,2.45
2023-03-23T19:54:38.614Z,2.42
2023-03-23T19:57:06.645Z,2.28
2023-03-23T19:59:33.988Z,2.38
2023-03-23T20:02:01.663Z,1.80
2023-03-23T20:04:29.316Z,2.20
2023-03-23T20:06:57.177Z,2.15
2023-03-23T20:09:25.301Z,2.03
2023-03-23T20:11:53.686Z,2.05
2023-03-23T20:14:21.004Z,2.10
2023-03-23T20:16:48.606Z,1.90
2023-03-23T20:19:15.574Z,1.70
2023-03-23T20:21:42.913Z,1.92
2023-03-23T20:24:09.887Z,2.00
2023-03-23T20:26:41.139Z,1.67
2023-03-23T20:29:08.177Z,1.88
2023-03-23T20:31:41.560Z,1.80
2023-03-23T20:34:11.561Z,2.10
2023-03-23T20:36:46.090Z,2.00
2023-03-23T20:39:19.058Z,2.10
2023-03-23T20:41:47.658Z,2.28
2023-03-23T20:44:15.939Z,2.22
2023-03-23T20:46:47.917Z,2.40
2023-03-23T20:49:16.271Z,2.20
2023-03-23T20:51:44.825Z,2.28
2023-03-23T20:54:15.635Z,2.42
2023-03-23T20:56:44.235Z,2.17
2023-03-23T20:59:12.685Z,2.70
2023-03-23T21:01:40.478Z,2.40
2023-03-23T21:04:15.139Z,2.33
2023-03-23T21:06:44.390Z,2.70
2023-03-23T21:09:12.272Z,2.63
2023-03-23T21:11:39.909Z,2.90
2023-03-23T21:14:06.909Z,2.63
2023-03-23T21:16:34.875Z,2.60
2023-03-23T21:19:04.279Z,2.35
2023-03-23T21:21:31.629Z,3.05
2023-03-23T21:23:58.876Z,3.15
2023-03-23T21:26:29.068Z,2.95
2023-03-23T21:28:59.981Z,3.47
2023-03-23T21:31:30.662Z,3.30
2023-03-23T21:33:58.861Z,3.22
2023-03-23T21:36:27.537Z,3.42
2023-03-23T21:38:55.478Z,3.63
2023-03-23T21:41:23.262Z,3.92
2023-03-23T21:43:50.441Z,4.03
2023-03-23T21:46:18.586Z,3.55
2023-03-23T21:48:51.001Z,3.50
2023-03-23T21:51:28.197Z,3.90
2023-03-23T21:53:56.277Z,3.78
2023-03-23T21:56:27.325Z,3.45
2023-03-23T21:58:56.635Z,3.63
2023-03-23T22:01:24.774Z,4.80
2023-03-23T22:03:51.990Z,4.03
2023-03-23T22:06:25.230Z,4.43
2023-03-23T22:08:53.454Z,4.38
2023-03-23T22:11:23.788Z,4.60
2023-03-23T22:13:53.312Z,4.18
2023-03-23T22:16:21.997Z,4.05
2023-03-23T22:18:51.282Z,5.38
2023-03-23T22:21:20.118Z,5.05
2023-03-23T22:23:47.205Z,5.10
2023-03-23T22:26:16.574Z,4.32
2023-03-23T22:28:46.513Z,4.75
2023-03-23T22:31:18.765Z,5.07
2023-03-23T22:33:47.769Z,5.75
2023-03-23T22:36:17.213Z,5.18
2023-03-23T22:38:46.314Z,5.90
2023-03-23T22:41:18.693Z,5.45
2023-03-23T22:43:46.129Z,5.57
2023-03-23T22:46:14.296Z,6.32
2023-03-23T22:48:42.017Z,6.03
2023-03-23T22:51:09.839Z,5.68
2023-03-23T22:53:36.925Z,5.63
2023-03-23T22:56:04.733Z,6.30
2023-03-23T22:58:31.945Z,5.95
2023-03-23T23:01:07.166Z,5.70
2023-03-23T23:03:35.385Z,5.50
2023-03-23T23:06:03.163Z,5.78
2023-03-23T23:08:32.050Z,6.00
2023-03-23T23:11:01.287Z,5.68
2023-03-23T23:13:29.821Z,5.10
2023-03-23T23:15:59.793Z,5.03
2023-03-23T23:18:27.754Z,4.90
2023-03-23T23:20:57.058Z,4.45
2023-03-23T23:23:24.905Z,4.78
2023-03-23T23:25:52.745Z,4.13
2023-03-23T23:28:20.767Z,4.13
2023-03-23T23:30:48.776Z,4.25
2023-03-23T23:33:16.095Z,3.58
2023-03-23T23:35:43.276Z,3.58
2023-03-23T23:38:12.519Z,3.78
2023-03-23T23:40:43.021Z,4.07
2023-03-23T23:43:15.411Z,3.80
2023-03-23T23:45:43.661Z,4.07
2023-03-23T23:48:11.236Z,3.88
2023-03-23T23:50:38.791Z,4.50
2023-03-23T23:53:05.827Z,4.72
2023-03-23T23:55:33.124Z,4.82
2023-03-23T23:58:00.377Z,4.70
